Time;durP1;ratioP1;P1;durP2;ratioP2;P2;SDS_P1;SDS_P2;PMS_P1;PMS_P2;Temp;Humidity;BMP_temperature;BMP_pressure;BME280_temperature;BME280_humidity;BME280_pressure;Samples;Min_cycle;Max_cycle;Signal;HPM_P1;HPM_P2
2021/01/02 00:00:04;;;;;;;50.63;23.20;;;7.00;96.90;;;;;;5073140;28;20489;-71
2021/01/02 00:02:48;;;;;;;49.40;23.00;;;6.90;96.90;;;;;;5071717;28;20037;-70
2021/01/02 00:05:15;;;;;;;50.58;23.27;;;6.90;96.90;;;;;;5071535;28;20161;-69
2021/01/02 00:08:05;;;;;;;46.65;23.42;;;7.00;97.00;;;;;;5071623;28;20032;-69
2021/01/02 00:10:37;;;;;;;58.15;24.08;;;7.00;97.00;;;;;;5071593;28;20493;-70
2021/01/02 00:13:15;;;;;;;52.47;25.38;;;6.90;97.00;;;;;;5071401;28;20064;-69
2021/01/02 00:16:14;;;;;;;53.20;24.33;;;6.90;97.00;;;;;;5071504;28;20032;-69
2021/01/02 00:19:04;;;;;;;53.33;24.02;;;7.00;97.00;;;;;;5071381;28;20040;-69
2021/01/02 00:21:54;;;;;;;54.00;23.98;;;7.00;97.00;;;;;;5071461;28;20059;-71
2021/01/02 00:24:55;;;;;;;55.97;24.92;;;6.90;96.90;;;;;;5050122;28;20127;-70
2021/01/02 00:27:39;;;;;;;51.70;23.08;;;6.90;96.90;;;;;;5071339;28;20021;-69
2021/01/02 00:30:15;;;;;;;50.78;23.77;;;6.90;96.90;;;;;;5072842;28;20031;-70
2021/01/02 00:33:12;;;;;;;52.78;23.30;;;7.00;96.80;;;;;;5071570;28;20424;-68
2021/01/02 00:35:38;;;;;;;52.87;24.80;;;6.80;96.80;;;;;;5071387;28;20032;-70
2021/01/02 00:38:06;;;;;;;58.22;24.95;;;6.80;96.80;;;;;;5071153;28;20374;-69
2021/01/02 00:40:34;;;;;;;59.00;25.17;;;6.70;96.90;;;;;;5071166;28;20049;-69
2021/01/02 00:43:00;;;;;;;51.80;22.83;;;6.90;96.90;;;;;;5071165;28;20043;-70
2021/01/02 00:45:28;;;;;;;53.10;23.85;;;6.90;96.70;;;;;;5071136;28;20350;-70
2021/01/02 00:47:55;;;;;;;58.17;24.77;;;6.80;96.90;;;;;;5072505;28;20519;-70
2021/01/02 00:50:22;;;;;;;55.17;24.20;;;6.70;96.90;;;;;;5071554;28;20124;-70
2021/01/02 00:52:54;;;;;;;55.38;24.80;;;6.70;97.10;;;;;;5070172;28;20040;-69
2021/01/02 00:55:48;;;;;;;51.20;23.00;;;6.80;96.90;;;;;;5071236;28;20050;-70
2021/01/02 00:58:27;;;;;;;50.47;22.73;;;6.80;97.00;;;;;;5074290;28;20035;-70
2021/01/02 01:01:04;;;;;;;52.28;22.88;;;6.80;96.80;;;;;;5075186;28;20036;-69
2021/01/02 01:03:56;;;;;;;53.33;23.73;;;6.70;96.90;;;;;;5070897;28;20044;-69
2021/01/02 01:06:25;;;;;;;58.28;24.27;;;6.60;97.10;;;;;;5053900;28;20108;-69
2021/01/02 01:08:53;;;;;;;54.30;23.88;;;6.60;97.00;;;;;;5055550;28;20035;-70
2021/01/02 01:11:20;;;;;;;;;;;6.70;97.00;;;;;;5055524;28;20059;-70
2021/01/02 01:13:49;;;;;;;60.75;23.95;;;6.60;97.00;;;;;;5054825;28;19944;-70
2021/01/02 01:16:21;;;;;;;58.58;24.80;;;6.40;97.20;;;;;;5054769;28;20106;-70
2021/01/02 01:18:57;;;;;;;55.53;25.08;;;6.40;97.30;;;;;;5054806;28;20101;-70
2021/01/02 01:21:27;;;;;;;52.45;24.80;;;6.40;97.20;;;;;;5054533;28;20455;-70
2021/01/02 01:24:13;;;;;;;54.45;24.25;;;6.40;97.30;;;;;;5056214;28;20025;-70
2021/01/02 01:27:24;;;;;;;56.13;24.67;;;6.50;97.10;;;;;;5054751;28;20026;-70
2021/01/02 01:30:00;;;;;;;57.90;24.85;;;6.40;97.20;;;;;;5052510;28;20467;-70
2021/01/02 01:32:27;;;;;;;61.58;25.17;;;6.40;97.20;;;;;;5073396;28;20040;-71
2021/01/02 01:35:02;;;;;;;61.03;24.48;;;6.50;97.10;;;;;;5072805;28;20466;-69
2021/01/02 01:37:33;;;;;;;55.88;24.02;;;6.50;97.10;;;;;;5073282;28;20123;-70
2021/01/02 01:40:00;;;;;;;55.22;23.95;;;6.50;97.10;;;;;;5074151;28;20048;-70
2021/01/02 01:42:51;;;;;;;50.65;23.40;;;6.60;97.10;;;;;;5074487;28;20027;-70
2021/01/02 01:45:39;;;;;;;55.65;22.98;;;6.60;97.00;;;;;;5074142;28;20021;-69
2021/01/02 01:48:08;;;;;;;54.83;23.15;;;6.60;96.90;;;;;;5075561;28;20017;-69
2021/01/02 01:51:10;;;;;;;56.33;23.65;;;6.70;97.10;;;;;;5074364;28;20080;-71
2021/01/02 01:53:54;;;;;;;49.72;22.98;;;6.50;97.00;;;;;;5074299;28;20044;-69
2021/01/02 01:56:34;;;;;;;52.60;22.25;;;6.60;96.90;;;;;;5074018;28;20040;-69
2021/01/02 01:59:18;;;;;;;53.80;23.88;;;6.60;96.90;;;;;;5073967;28;20036;-70
2021/01/02 02:01:55;;;;;;;56.40;23.10;;;6.60;96.80;;;;;;5074041;28;20533;-69
2021/01/02 02:05:00;;;;;;;50.63;21.70;;;6.60;96.80;;;;;;5074115;28;20170;-69
2021/01/02 02:07:46;;;;;;;47.13;21.42;;;6.60;96.80;;;;;;5031402;28;20045;-69
2021/01/02 02:10:26;;;;;;;51.75;21.85;;;6.50;96.90;;;;;;5031490;28;20029;-68
2021/01/02 02:12:54;;;;;;;50.95;21.98;;;6.40;97.00;;;;;;5063790;28;20108;-69
2021/01/02 02:15:25;;;;;;;51.70;23.33;;;6.40;97.10;;;;;;5072390;28;20024;-69
2021/01/02 02:18:17;;;;;;;53.22;22.30;;;6.40;97.20;;;;;;5055131;28;20102;-69
2021/01/02 02:20:47;;;;;;;51.08;22.35;;;6.30;97.20;;;;;;5053942;28;20044;-69
2021/01/02 02:23:14;;;;;;;59.97;23.17;;;6.40;97.30;;;;;;5070636;28;20032;-68
2021/01/02 02:25:59;;;;;;;54.58;23.05;;;6.40;97.20;;;;;;5072500;28;20377;-69
2021/01/02 02:28:47;;;;;;;47.70;21.85;;;6.40;97.20;;;;;;5072464;28;20048;-70
2021/01/02 02:31:16;;;;;;;59.03;23.30;;;6.50;97.20;;;;;;5073548;28;20087;-69
2021/01/02 02:34:06;;;;;;;50.45;22.98;;;6.50;97.10;;;;;;5073285;28;20351;-69
2021/01/02 02:36:32;;;;;;;55.78;22.50;;;6.50;97.20;;;;;;5073006;28;20045;-69
2021/01/02 02:38:59;;;;;;;57.10;24.08;;;6.50;97.20;;;;;;5074664;28;20035;-70
2021/01/02 02:41:30;;;;;;;54.08;23.80;;;6.30;97.20;;;;;;5071679;28;20041;-70
2021/01/02 02:43:59;;;;;;;50.50;22.85;;;6.20;97.40;;;;;;5072893;28;20516;-69
2021/01/02 02:46:28;;;;;;;47.55;22.55;;;6.30;97.50;;;;;;5073207;28;20037;-70
2021/01/02 02:48:57;;;;;;;60.15;24.27;;;6.30;97.50;;;;;;5073046;28;20074;-69
2021/01/02 02:51:27;;;;;;;54.80;24.42;;;6.30;97.80;;;;;;5073004;28;20102;-70
2021/01/02 02:53:53;;;;;;;61.13;24.95;;;6.30;97.60;;;;;;5074337;28;20027;-69
2021/01/02 02:56:18;;;;;;;60.72;26.33;;;6.30;97.60;;;;;;5072862;28;20032;-71
2021/01/02 02:58:44;;;;;;;59.85;25.55;;;6.40;97.60;;;;;;5072724;28;20082;-69
2021/01/02 03:01:10;;;;;;;58.40;26.05;;;6.30;97.60;;;;;;5072596;28;20067;-69
2021/01/02 03:03:35;;;;;;;65.45;26.85;;;6.40;97.70;;;;;;5072695;28;20414;-69
2021/01/02 03:06:02;;;;;;;60.88;26.38;;;6.40;97.50;;;;;;5074146;28;20033;-69
2021/01/02 03:08:28;;;;;;;66.38;25.15;;;6.50;97.60;;;;;;5072447;28;20067;-70
2021/01/02 03:10:54;;;;;;;62.63;26.45;;;6.40;97.60;;;;;;5072270;28;20043;-70
2021/01/02 03:13:20;;;;;;;61.72;26.60;;;6.40;97.60;;;;;;5071355;28;20036;-69
2021/01/02 03:15:45;;;;;;;64.45;26.55;;;6.40;97.60;;;;;;5072371;28;20029;-70
2021/01/02 03:18:11;;;;;;;63.25;28.10;;;6.30;97.70;;;;;;5072468;28;20016;-70
2021/01/02 03:20:37;;;;;;;59.95;26.58;;;6.40;97.70;;;;;;5073234;28;20071;-70
2021/01/02 03:23:03;;;;;;;64.18;26.63;;;6.30;97.70;;;;;;5072333;28;20128;-70
2021/01/02 03:25:29;;;;;;;67.40;28.58;;;6.30;97.60;;;;;;5072220;28;20036;-69
2021/01/02 03:27:56;;;;;;;67.25;27.80;;;6.30;97.70;;;;;;5072270;28;20050;-71
2021/01/02 03:30:23;;;;;;;70.00;28.30;;;6.20;97.70;;;;;;5071976;28;20024;-69
2021/01/02 03:32:49;;;;;;;62.58;27.23;;;6.20;97.80;;;;;;5073608;28;20078;-71
2021/01/02 03:35:16;;;;;;;65.60;28.05;;;6.20;97.80;;;;;;5072009;28;20036;-69
2021/01/02 03:37:44;;;;;;;59.10;25.65;;;6.30;97.80;;;;;;5072028;28;20359;-69
2021/01/02 03:40:12;;;;;;;70.60;28.73;;;6.40;97.80;;;;;;5071894;28;20049;-70
2021/01/02 03:42:39;;;;;;;64.03;27.77;;;6.40;97.60;;;;;;5071613;28;20032;-71
2021/01/02 03:45:08;;;;;;;60.13;25.38;;;6.40;97.50;;;;;;5073549;28;20029;-72
2021/01/02 03:47:34;;;;;;;64.30;27.05;;;6.40;97.50;;;;;;5071967;28;20043;-72
2021/01/02 03:50:00;;;;;;;61.40;28.15;;;6.30;97.60;;;;;;5071786;28;20047;-69
2021/01/02 03:52:26;;;;;;;61.53;26.40;;;6.30;97.60;;;;;;5071791;28;20036;-70
2021/01/02 03:54:52;;;;;;;62.53;25.55;;;6.30;97.60;;;;;;5071770;28;20043;-69
2021/01/02 03:57:18;;;;;;;62.53;24.67;;;6.20;97.50;;;;;;5071955;28;20031;-68
2021/01/02 03:59:43;;;;;;;63.88;26.85;;;6.20;97.60;;;;;;5073513;28;20021;-69
2021/01/02 04:02:09;;;;;;;65.85;26.27;;;6.10;97.60;;;;;;5071644;28;20044;-70
2021/01/02 04:04:35;;;;;;;58.70;25.23;;;6.20;97.60;;;;;;5071480;28;20040;-67
2021/01/02 04:07:04;;;;;;;57.05;24.30;;;6.20;97.70;;;;;;5071562;28;20116;-69
2021/01/02 04:09:30;;;;;;;57.70;25.52;;;6.20;97.60;;;;;;5071572;28;20040;-70
2021/01/02 04:11:56;;;;;;;58.58;24.58;;;6.10;97.60;;;;;;5073106;28;20074;-70
2021/01/02 04:14:22;;;;;;;54.30;25.77;;;6.10;97.60;;;;;;5071578;28;20029;-71
2021/01/02 04:16:48;;;;;;;58.63;25.33;;;6.10;97.70;;;;;;5071644;28;20106;-69
2021/01/02 04:19:13;;;;;;;60.45;26.27;;;6.10;97.80;;;;;;5071720;28;20031;-69
2021/01/02 04:21:40;;;;;;;54.33;24.98;;;6.00;97.80;;;;;;5071510;28;20455;-69
2021/01/02 04:24:07;;;;;;;60.22;24.98;;;6.10;97.90;;;;;;5072000;28;20414;-68
2021/01/02 04:26:33;;;;;;;57.03;25.00;;;6.10;97.70;;;;;;5071696;28;20051;-69
2021/01/02 04:28:59;;;;;;;67.78;27.13;;;6.10;97.80;;;;;;5071678;28;20488;-69
2021/01/02 04:31:39;;;;;;;53.22;24.85;;;6.00;97.70;;;;;;5070785;28;20093;-69
2021/01/02 04:34:06;;;;;;;59.38;25.10;;;6.10;97.80;;;;;;5075248;28;20036;-69
2021/01/02 04:36:33;;;;;;;56.07;25.37;;;6.20;97.80;;;;;;5075303;28;20131;-69
2021/01/02 04:38:59;;;;;;;58.85;26.38;;;6.20;97.60;;;;;;5076942;28;20032;-70
2021/01/02 04:41:26;;;;;;;51.90;23.90;;;6.10;97.60;;;;;;5075323;28;20041;-70
2021/01/02 04:43:53;;;;;;;61.72;25.95;;;6.10;97.60;;;;;;5075415;28;20037;-69
2021/01/02 04:46:20;;;;;;;58.78;24.73;;;6.10;97.60;;;;;;5075368;28;20025;-69
2021/01/02 04:48:48;;;;;;;55.42;23.48;;;6.10;97.70;;;;;;5075193;28;20035;-69
2021/01/02 04:51:14;;;;;;;55.67;24.98;;;6.00;97.70;;;;;;5075167;28;20036;-69
2021/01/02 04:53:41;;;;;;;53.92;23.55;;;6.00;97.80;;;;;;5076689;28;20406;-69
2021/01/02 04:56:08;;;;;;;54.22;23.23;;;6.00;97.70;;;;;;5075145;28;20052;-68
2021/01/02 04:58:42;;;;;;;53.90;23.88;;;5.90;97.70;;;;;;5074125;28;20028;-69
2021/01/02 05:01:10;;;;;;;60.03;24.60;;;5.90;97.80;;;;;;5074980;28;20135;-70
2021/01/02 05:03:36;;;;;;;58.08;24.13;;;5.90;97.90;;;;;;5075142;28;20033;-70
2021/01/02 05:06:03;;;;;;;55.17;25.52;;;5.80;97.80;;;;;;5076519;28;20413;-70
2021/01/02 05:08:30;;;;;;;57.80;23.73;;;5.80;97.80;;;;;;5055388;28;20124;-70
2021/01/02 05:10:57;;;;;;;49.10;22.75;;;5.80;97.80;;;;;;5054675;28;20068;-69
2021/01/02 05:13:32;;;;;;;57.75;23.88;;;5.80;97.80;;;;;;5054807;28;20052;-69
2021/01/02 05:16:16;;;;;;;55.13;24.02;;;5.90;97.90;;;;;;5054687;28;20100;-69
2021/01/02 05:19:15;;;;;;;50.28;23.25;;;5.80;97.80;;;;;;5054672;28;20029;-70
2021/01/02 05:21:48;;;;;;;55.00;24.10;;;5.90;97.90;;;;;;5032005;28;20132;-69
2021/01/02 05:24:19;;;;;;;52.95;23.88;;;5.80;97.80;;;;;;5054978;28;20017;-69
2021/01/02 05:26:59;;;;;;;48.83;22.17;;;5.70;97.90;;;;;;5055366;28;20434;-68
2021/01/02 05:29:26;;;;;;;52.78;23.13;;;5.80;97.90;;;;;;5053312;28;20115;-69
2021/01/02 05:31:54;;;;;;;55.42;23.80;;;5.80;98.00;;;;;;5054478;28;20033;-69
2021/01/02 05:34:21;;;;;;;;;;;5.80;98.00;;;;;;5054866;28;20441;-69
2021/01/02 05:36:57;;;;;;;50.25;23.50;;;5.90;97.90;;;;;;5054329;28;20270;-69
2021/01/02 05:39:41;;;;;;;53.53;23.40;;;5.90;97.90;;;;;;5054224;28;20153;-71
2021/01/02 05:42:08;;;;;;;57.83;23.02;;;6.00;97.80;;;;;;5054585;28;20029;-71
2021/01/02 05:44:36;;;;;;;59.78;23.67;;;5.90;97.70;;;;;;5074671;28;20068;-70
2021/01/02 05:47:04;;;;;;;55.10;23.33;;;5.90;97.80;;;;;;5074068;28;20040;-71
2021/01/02 05:49:33;;;;;;;55.85;24.63;;;6.00;97.80;;;;;;5073985;28;20787;-70
2021/01/02 05:52:01;;;;;;;52.05;22.88;;;6.00;97.80;;;;;;5073979;28;20394;-70
2021/01/02 05:54:28;;;;;;;52.63;23.45;;;6.00;97.80;;;;;;5074094;28;20029;-70
2021/01/02 05:57:00;;;;;;;53.73;23.33;;;5.90;97.70;;;;;;5074640;28;20033;-70
2021/01/02 05:59:29;;;;;;;53.53;23.73;;;5.90;97.80;;;;;;5073946;28;20683;-70
2021/01/02 06:01:55;;;;;;;52.47;22.80;;;5.90;97.90;;;;;;5073797;28;20135;-69
2021/01/02 06:04:21;;;;;;;60.60;23.83;;;6.00;97.90;;;;;;5072918;28;20119;-70
2021/01/02 06:07:05;;;;;;;55.67;25.33;;;5.90;97.90;;;;;;5073999;28;20044;-70
2021/01/02 06:09:32;;;;;;;58.20;25.45;;;5.90;97.90;;;;;;5074123;28;20043;-70
2021/01/02 06:12:03;;;;;;;56.28;24.80;;;5.90;97.90;;;;;;5075308;28;20024;-69
2021/01/02 06:14:33;;;;;;;57.42;24.65;;;5.90;97.80;;;;;;5073832;28;20055;-70
2021/01/02 06:17:04;;;;;;;55.92;23.60;;;6.00;97.80;;;;;;5073532;28;20037;-71
2021/01/02 06:19:30;;;;;;;50.55;23.65;;;6.00;97.80;;;;;;5072547;28;20037;-70
2021/01/02 06:21:56;;;;;;;57.50;23.98;;;6.00;97.80;;;;;;5072464;28;20037;-70
2021/01/02 06:24:22;;;;;;;55.55;24.08;;;6.10;97.80;;;;;;5073551;28;20040;-70
2021/01/02 06:26:50;;;;;;;53.53;23.98;;;6.10;97.70;;;;;;5075057;28;20047;-71
2021/01/02 06:29:15;;;;;;;55.25;24.52;;;6.10;97.70;;;;;;5073536;28;20048;-70
2021/01/02 06:31:41;;;;;;;64.15;24.48;;;6.10;97.60;;;;;;5073173;28;20060;-71
2021/01/02 06:34:07;;;;;;;56.25;25.15;;;6.00;97.60;;;;;;5073251;28;20390;-69
2021/01/02 06:36:36;;;;;;;51.50;24.00;;;5.90;97.80;;;;;;5073054;28;20041;-69
2021/01/02 06:39:21;;;;;;;53.80;23.90;;;6.00;97.80;;;;;;5074676;28;20031;-70
2021/01/02 06:41:47;;;;;;;51.17;23.58;;;6.00;97.80;;;;;;5073548;28;20052;-70
2021/01/02 06:44:45;;;;;;;52.13;23.20;;;6.10;97.80;;;;;;5072189;28;20071;-70
2021/01/02 06:47:14;;;;;;;56.15;24.73;;;6.00;97.70;;;;;;5072917;28;20052;-70
2021/01/02 06:49:40;;;;;;;60.13;25.02;;;6.00;97.80;;;;;;5072808;28;20062;-69
2021/01/02 06:52:06;;;;;;;56.50;26.98;;;6.00;97.80;;;;;;5071951;28;20044;-71
2021/01/02 06:54:31;;;;;;;56.30;24.58;;;6.10;97.80;;;;;;5070802;28;20366;-70
2021/01/02 06:57:04;;;;;;;49.70;22.60;;;6.10;97.60;;;;;;5074316;28;20027;-69
2021/01/02 06:59:30;;;;;;;54.60;24.35;;;6.20;97.60;;;;;;5072677;28;20059;-70
2021/01/02 07:01:57;;;;;;;49.10;22.73;;;6.30;97.60;;;;;;5072642;28;20493;-70
2021/01/02 07:04:37;;;;;;;49.67;22.20;;;6.30;97.60;;;;;;5072548;28;20028;-70
2021/01/02 07:07:06;;;;;;;51.67;23.38;;;6.20;97.60;;;;;;5071366;28;20036;-70
2021/01/02 07:09:32;;;;;;;49.70;22.85;;;6.20;97.60;;;;;;5072276;28;20462;-69
2021/01/02 07:12:12;;;;;;;48.85;21.88;;;6.20;97.50;;;;;;5074006;28;20409;-69
2021/01/02 07:14:38;;;;;;;53.55;23.05;;;6.20;97.60;;;;;;5072939;28;20032;-69
2021/01/02 07:17:10;;;;;;;49.97;22.30;;;6.20;97.60;;;;;;5072709;28;20028;-71
2021/01/02 07:19:46;;;;;;;53.90;23.30;;;6.20;97.50;;;;;;5072388;28;20357;-70
2021/01/02 07:22:18;;;;;;;50.20;21.60;;;6.30;97.50;;;;;;5072148;28;20462;-69
2021/01/02 07:24:48;;;;;;;53.53;23.88;;;6.20;97.40;;;;;;5071154;28;20065;-70
2021/01/02 07:27:31;;;;;;;51.30;21.70;;;6.10;97.50;;;;;;5071143;28;20038;-69
2021/01/02 07:29:58;;;;;;;49.90;22.92;;;6.20;97.60;;;;;;5072587;28;20025;-72
2021/01/02 07:32:27;;;;;;;53.47;23.10;;;6.20;97.70;;;;;;5072349;28;20052;-69
2021/01/02 07:34:52;;;;;;;58.30;25.42;;;6.10;97.80;;;;;;5070883;28;20033;-71
2021/01/02 07:37:21;;;;;;;56.05;23.50;;;6.20;97.90;;;;;;5071867;28;20054;-69
2021/01/02 07:40:06;;;;;;;52.97;23.98;;;6.10;97.90;;;;;;5071972;28;20032;-69
2021/01/02 07:43:03;;;;;;;51.38;23.27;;;6.20;98.00;;;;;;5070832;28;20110;-70
2021/01/02 07:45:29;;;;;;;50.70;22.25;;;6.20;97.90;;;;;;5069990;28;20040;-70
2021/01/02 07:47:58;;;;;;;55.83;22.73;;;6.20;97.90;;;;;;5073295;28;20507;-70
2021/01/02 07:50:28;;;;;;;57.75;23.02;;;6.10;98.00;;;;;;5071511;28;20101;-70
2021/01/02 07:53:04;;;;;;;60.30;24.52;;;6.10;98.10;;;;;;5071581;28;20036;-70
2021/01/02 07:55:34;;;;;;;58.25;23.83;;;6.20;98.20;;;;;;5071824;28;20374;-69
2021/01/02 07:58:00;;;;;;;52.65;23.52;;;6.10;98.20;;;;;;5070710;28;20032;-70
2021/01/02 08:00:27;;;;;;;55.97;23.52;;;6.20;98.20;;;;;;5071690;28;20036;-69
2021/01/02 08:02:53;;;;;;;47.97;22.92;;;6.30;98.10;;;;;;5073215;28;20408;-69
2021/01/02 08:05:20;;;;;;;51.00;22.45;;;6.20;98.10;;;;;;5071747;28;20075;-69
2021/01/02 08:07:53;;;;;;;56.67;23.88;;;6.30;98.20;;;;;;5071680;28;20042;-69
2021/01/02 08:10:19;;;;;;;55.13;23.10;;;6.30;98.10;;;;;;5071369;28;20048;-69
2021/01/02 08:12:49;;;;;;;60.25;24.85;;;6.40;98.10;;;;;;5070799;28;20478;-69
2021/01/02 08:15:25;;;;;;;55.17;24.13;;;6.20;98.10;;;;;;5070728;28;20424;-68
2021/01/02 08:17:51;;;;;;;57.28;24.35;;;6.20;98.30;;;;;;5072998;28;20147;-69
2021/01/02 08:20:16;;;;;;;56.25;24.75;;;6.30;98.30;;;;;;5071322;28;20037;-70
2021/01/02 08:22:42;;;;;;;59.22;24.60;;;6.30;98.30;;;;;;5071293;28;20384;-71
2021/01/02 08:25:16;;;;;;;62.28;24.58;;;6.30;98.30;;;;;;5071332;28;20445;-70
2021/01/02 08:27:43;;;;;;;59.03;25.88;;;6.40;98.30;;;;;;5071546;28;20055;-69
2021/01/02 08:30:10;;;;;;;58.50;24.97;;;6.40;98.20;;;;;;5071531;28;20024;-71
2021/01/02 08:32:43;;;;;;;64.07;24.63;;;6.40;98.20;;;;;;5073488;28;20092;-70
2021/01/02 08:35:19;;;;;;;60.13;24.17;;;6.40;98.10;;;;;;5071323;28;20033;-70
2021/01/02 08:37:47;;;;;;;58.65;25.45;;;6.50;98.40;;;;;;5070859;28;20509;-70
2021/01/02 08:40:15;;;;;;;62.63;24.77;;;6.50;98.10;;;;;;5071262;28;20036;-69
2021/01/02 08:42:46;;;;;;;60.92;25.33;;;6.60;98.20;;;;;;5071531;28;20032;-68
2021/01/02 08:45:13;;;;;;;65.28;27.58;;;6.60;98.10;;;;;;5070990;28;20111;-70
2021/01/02 08:47:40;;;;;;;55.30;24.05;;;6.60;98.20;;;;;;5072622;28;20017;-70
2021/01/02 08:50:13;;;;;;;53.92;24.60;;;6.60;98.00;;;;;;5070757;28;20025;-70
2021/01/02 08:52:39;;;;;;;54.03;23.85;;;6.60;98.10;;;;;;5070962;28;20051;-70
2021/01/02 08:55:10;;;;;;;57.08;23.80;;;6.70;98.10;;;;;;5071209;28;20033;-70
2021/01/02 08:57:45;;;;;;;56.13;24.30;;;6.80;98.10;;;;;;5070977;28;20032;-71
2021/01/02 09:00:21;;;;;;;61.28;24.95;;;6.80;97.90;;;;;;5069794;28;20220;-70
2021/01/02 09:02:51;;;;;;;60.97;25.63;;;6.80;98.00;;;;;;5073213;28;20020;-70
2021/01/02 09:05:26;;;;;;;51.45;23.35;;;6.80;97.90;;;;;;5070932;28;20048;-69
2021/01/02 09:07:59;;;;;;;62.45;25.73;;;6.70;97.80;;;;;;5070956;28;20485;-70
2021/01/02 09:10:38;;;;;;;57.33;25.00;;;6.70;97.80;;;;;;5071393;28;20498;-69
2021/01/02 09:13:11;;;;;;;59.95;24.77;;;6.70;97.90;;;;;;5051230;28;20132;-69
2021/01/02 09:15:53;;;;;;;62.95;26.20;;;6.60;98.30;;;;;;5051221;28;20033;-69
2021/01/02 09:18:37;;;;;;;68.18;26.63;;;6.70;98.30;;;;;;5051925;28;20087;-71
2021/01/02 09:21:11;;;;;;;61.72;26.38;;;6.70;98.10;;;;;;5056575;28;20040;-72
2021/01/02 09:23:39;;;;;;;58.50;24.85;;;6.80;98.20;;;;;;5055436;28;20370;-71
2021/01/02 09:26:16;;;;;;;58.60;24.95;;;6.90;98.20;;;;;;5037935;28;20038;-69
2021/01/02 09:28:43;;;;;;;62.67;26.63;;;6.80;98.20;;;;;;5047949;28;20056;-70
2021/01/02 09:31:09;;;;;;;65.03;25.58;;;6.80;98.30;;;;;;5054990;28;20065;-70
2021/01/02 09:33:35;;;;;;;57.10;25.38;;;6.80;98.10;;;;;;5055146;28;20383;-70
2021/01/02 09:36:01;;;;;;;65.22;26.40;;;6.80;98.00;;;;;;5054736;28;20029;-69
2021/01/02 09:38:26;;;;;;;58.30;25.02;;;6.90;98.20;;;;;;5054693;28;20040;-69
2021/01/02 09:40:52;;;;;;;61.28;25.38;;;7.00;98.30;;;;;;5054558;28;20401;-71
2021/01/02 09:43:19;;;;;;;57.40;25.52;;;7.00;98.00;;;;;;5053495;28;20039;-70
2021/01/02 09:45:45;;;;;;;66.22;26.98;;;7.10;97.90;;;;;;5054601;28;20168;-68
2021/01/02 09:48:12;;;;;;;56.65;24.70;;;7.00;97.90;;;;;;5054109;28;20103;-69
2021/01/02 09:50:41;;;;;;;60.58;24.88;;;7.00;97.90;;;;;;5055929;28;20051;-70
2021/01/02 09:53:08;;;;;;;53.72;24.00;;;7.00;97.90;;;;;;5054482;28;20025;-68
2021/01/02 09:55:34;;;;;;;60.33;25.58;;;7.00;97.90;;;;;;5054367;28;20033;-70
2021/01/02 09:57:59;;;;;;;58.65;24.48;;;7.10;97.80;;;;;;5053978;28;20378;-70
2021/01/02 10:00:27;;;;;;;56.17;24.02;;;7.00;97.90;;;;;;5054200;28;20033;-70
2021/01/02 10:02:53;;;;;;;56.30;25.23;;;7.00;98.00;;;;;;5055757;28;20027;-71
2021/01/02 10:05:21;;;;;;;62.75;25.83;;;7.10;98.00;;;;;;5053989;28;20025;-70
2021/01/02 10:07:47;;;;;;;57.72;24.13;;;7.10;97.80;;;;;;5054141;28;20075;-68
2021/01/02 10:10:15;;;;;;;57.33;24.42;;;7.20;97.90;;;;;;5054185;28;20120;-69
2021/01/02 10:12:41;;;;;;;;;;;7.10;97.80;;;;;;5054689;28;20102;-71
2021/01/02 10:15:08;;;;;;;52.78;22.83;;;7.20;97.60;;;;;;5055845;28;19915;-71
2021/01/02 10:17:34;;;;;;;50.22;21.58;;;7.20;97.50;;;;;;5054191;28;20120;-71
2021/01/02 10:19:59;;;;;;;55.88;24.80;;;7.30;97.50;;;;;;5053388;28;20120;-69
2021/01/02 10:22:26;;;;;;;51.00;22.70;;;7.40;97.40;;;;;;5053791;28;20052;-76
2021/01/02 10:24:52;;;;;;;57.85;25.20;;;7.50;97.40;;;;;;5053524;28;20408;-74
2021/01/02 10:27:19;;;;;;;46.03;22.88;;;7.60;97.40;;;;;;5052693;28;20025;-75
2021/01/02 10:29:47;;;;;;;49.47;23.42;;;7.60;97.20;;;;;;5054280;28;20096;-70
2021/01/02 10:32:13;;;;;;;;;;;7.80;97.00;;;;;;5064110;28;20033;-74
2021/01/02 10:34:43;;;;;;;55.65;22.58;;;7.80;97.10;;;;;;5072121;28;19909;-69
2021/01/02 10:37:09;;;;;;;54.65;23.33;;;7.90;97.00;;;;;;5073335;28;20037;-70
2021/01/02 10:39:41;;;;;;;51.72;23.08;;;7.80;96.80;;;;;;5073562;28;20572;-70
2021/01/02 10:42:08;;;;;;;53.60;23.23;;;7.80;96.90;;;;;;5074892;28;20035;-70
2021/01/02 10:44:34;;;;;;;51.70;23.45;;;8.00;96.90;;;;;;5073925;28;20175;-74
2021/01/02 10:47:00;;;;;;;53.17;23.05;;;8.00;96.80;;;;;;5073237;28;20056;-71
2021/01/02 10:49:27;;;;;;;48.03;21.48;;;8.10;96.50;;;;;;5072135;28;20068;-73
2021/01/02 10:51:53;;;;;;;52.47;21.80;;;8.10;96.40;;;;;;5072423;28;20039;-68
2021/01/02 10:54:20;;;;;;;53.83;21.95;;;8.10;96.50;;;;;;5072122;28;20362;-69
2021/01/02 10:56:47;;;;;;;53.85;20.23;;;8.10;96.40;;;;;;5074879;28;20030;-69
2021/01/02 10:59:14;;;;;;;43.97;20.20;;;8.20;96.50;;;;;;5073027;28;20025;-72
2021/01/02 11:01:46;;;;;;;45.38;19.35;;;8.00;96.10;;;;;;5072884;28;20538;-73
2021/01/02 11:04:12;;;;;;;46.20;20.17;;;7.90;96.60;;;;;;5072802;28;20120;-73
2021/01/02 11:06:39;;;;;;;46.00;20.48;;;7.90;96.30;;;;;;5072886;28;20146;-79
2021/01/02 11:09:07;;;;;;;43.15;18.20;;;7.90;96.20;;;;;;5073539;28;20070;-79
2021/01/02 11:11:34;;;;;;;46.45;19.33;;;8.00;96.30;;;;;;5073012;28;20454;-81
2021/01/02 11:14:00;;;;;;;38.53;18.20;;;8.10;96.10;;;;;;5072763;28;20032;-78
2021/01/02 11:16:33;;;;;;;43.58;19.35;;;8.00;96.10;;;;;;5072669;28;20144;-76
2021/01/02 11:18:59;;;;;;;38.75;17.92;;;8.00;96.10;;;;;;5072106;28;20028;-78
2021/01/02 11:21:25;;;;;;;40.33;16.60;;;8.00;96.00;;;;;;5072752;28;20043;-81
2021/01/02 11:23:51;;;;;;;38.10;17.58;;;8.00;95.70;;;;;;5074197;28;20354;-79
2021/01/02 11:26:17;;;;;;;38.78;17.02;;;8.00;95.80;;;;;;5071355;28;20028;-79
2021/01/02 11:28:43;;;;;;;33.08;15.77;;;7.80;95.70;;;;;;5072479;28;20454;-70
2021/01/02 11:31:08;;;;;;;35.28;16.75;;;7.90;95.80;;;;;;5072375;28;20522;-69
2021/01/02 11:33:34;;;;;;;36.60;16.00;;;8.10;96.00;;;;;;5072606;28;20122;-75
2021/01/02 11:36:00;;;;;;;37.17;17.27;;;8.20;95.90;;;;;;5073884;28;20471;-72
2021/01/02 11:38:26;;;;;;;36.05;15.65;;;8.20;95.70;;;;;;5072460;28;20116;-70
2021/01/02 11:40:52;;;;;;;35.17;16.75;;;8.30;95.60;;;;;;5071993;28;20110;-69
2021/01/02 11:43:18;;;;;;;34.75;16.23;;;8.40;95.60;;;;;;5072195;28;20029;-69
2021/01/02 11:45:46;;;;;;;45.42;19.35;;;8.30;95.40;;;;;;5070947;28;20043;-70
2021/01/02 11:48:12;;;;;;;41.15;17.30;;;8.30;95.60;;;;;;5072144;28;20017;-71
2021/01/02 11:50:39;;;;;;;42.03;18.10;;;8.30;95.80;;;;;;5073710;28;20021;-71
2021/01/02 11:53:05;;;;;;;36.70;17.73;;;8.40;95.90;;;;;;5072317;28;20052;-71
2021/01/02 11:55:31;;;;;;;44.22;18.90;;;8.40;95.90;;;;;;5072335;28;20043;-74
2021/01/02 11:57:56;;;;;;;34.28;16.40;;;8.60;95.90;;;;;;5070324;28;20093;-71
2021/01/02 12:00:22;;;;;;;37.55;15.43;;;8.50;95.50;;;;;;5070846;28;20032;-72
2021/01/02 12:02:48;;;;;;;31.50;14.43;;;8.50;95.20;;;;;;5073696;28;20016;-72
2021/01/02 12:05:14;;;;;;;33.35;14.77;;;8.40;95.10;;;;;;5071859;28;20032;-70
2021/01/02 12:07:40;;;;;;;38.17;16.30;;;8.60;95.20;;;;;;5071094;28;20037;-71
2021/01/02 12:10:06;;;;;;;41.17;17.55;;;8.60;95.40;;;;;;5068130;28;20455;-72
2021/01/02 12:12:32;;;;;;;37.58;16.60;;;8.60;95.30;;;;;;5071853;28;20028;-68
2021/01/02 12:14:58;;;;;;;42.13;18.13;;;8.60;95.30;;;;;;5073298;28;20035;-70
2021/01/02 12:17:23;;;;;;;39.72;17.13;;;8.60;95.30;;;;;;5071876;28;20033;-68
2021/01/02 12:19:49;;;;;;;42.80;16.60;;;8.70;95.30;;;;;;5071743;28;20124;-70
2021/01/02 12:22:15;;;;;;;44.40;19.60;;;8.60;95.40;;;;;;5071859;28;20040;-71
2021/01/02 12:24:42;;;;;;;41.92;18.95;;;8.60;95.40;;;;;;5071461;28;20139;-71
2021/01/02 12:27:09;;;;;;;38.53;17.30;;;8.70;95.60;;;;;;5073179;28;20060;-70
2021/01/02 12:29:37;;;;;;;42.80;17.77;;;8.50;95.40;;;;;;5071994;28;20064;-71
2021/01/02 12:32:06;;;;;;;36.08;16.92;;;8.50;95.50;;;;;;5071608;28;20025;-71
2021/01/02 12:34:35;;;;;;;42.08;18.80;;;8.50;95.40;;;;;;5071703;28;20036;-71
2021/01/02 12:37:05;;;;;;;40.55;19.38;;;8.50;95.50;;;;;;5071383;28;20044;-71
2021/01/02 12:39:32;;;;;;;39.65;16.52;;;8.50;95.30;;;;;;5071386;28;20037;-73
2021/01/02 12:41:59;;;;;;;37.93;16.73;;;8.50;95.40;;;;;;5073107;28;20029;-70
2021/01/02 12:44:25;;;;;;;34.58;15.95;;;8.50;95.60;;;;;;5069942;28;20115;-74
2021/01/02 12:46:57;;;;;;;46.22;20.10;;;8.60;95.30;;;;;;5071681;28;20033;-71
2021/01/02 12:49:27;;;;;;;40.30;17.83;;;8.50;95.30;;;;;;5071675;28;20071;-69
2021/01/02 12:51:57;;;;;;;35.65;16.98;;;8.60;95.20;;;;;;5071804;28;20462;-70
2021/01/02 12:54:23;;;;;;;35.65;17.25;;;8.50;95.20;;;;;;5075150;28;20048;-69